sensor_id;sensor_type;location;lat;lon;timestamp;pressure;altitude;pressure_sealevel;temperature;humidity
73558;BME280;61829;53.286;10.434;2024-03-06T00:00:22;101806.34;;;1.31;81.62
73558;BME280;61829;53.286;10.434;2024-03-06T00:03:27;101804.00;;;1.26;82.29
73558;BME280;61829;53.286;10.434;2024-03-06T00:06:15;101810.25;;;1.25;82.03
73558;BME280;61829;53.286;10.434;2024-03-06T00:09:00;101816.63;;;1.23;81.73
73558;BME280;61829;53.286;10.434;2024-03-06T00:11:45;101812.44;;;1.19;82.10
73558;BME280;61829;53.286;10.434;2024-03-06T00:14:29;101810.09;;;1.14;81.83
73558;BME280;61829;53.286;10.434;2024-03-06T00:17:14;101814.78;;;1.10;82.41
73558;BME280;61829;53.286;10.434;2024-03-06T00:20:16;101828.97;;;1.09;82.07
73558;BME280;61829;53.286;10.434;2024-03-06T00:23:04;101823.97;;;1.05;82.23
73558;BME280;61829;53.286;10.434;2024-03-06T00:29:49;101829.97;;;0.94;82.81
73558;BME280;61829;53.286;10.434;2024-03-06T00:32:33;101834.50;;;0.92;83.20
73558;BME280;61829;53.286;10.434;2024-03-06T00:35:18;101830.25;;;0.89;83.03
73558;BME280;61829;53.286;10.434;2024-03-06T00:38:03;101833.88;;;0.88;82.71
73558;BME280;61829;53.286;10.434;2024-03-06T00:40:48;101839.38;;;0.85;82.62
73558;BME280;61829;53.286;10.434;2024-03-06T00:43:45;101838.59;;;0.83;83.46
73558;BME280;61829;53.286;10.434;2024-03-06T00:46:30;101841.34;;;0.82;83.14
73558;BME280;61829;53.286;10.434;2024-03-06T00:49:14;101847.72;;;0.79;83.28
73558;BME280;61829;53.286;10.434;2024-03-06T00:52:00;101850.47;;;0.78;83.09
73558;BME280;61829;53.286;10.434;2024-03-06T00:54:45;101844.38;;;0.76;82.79
73558;BME280;61829;53.286;10.434;2024-03-06T00:57:51;101853.38;;;0.73;83.28
73558;BME280;61829;53.286;10.434;2024-03-06T01:00:36;101847.44;;;0.70;82.89
73558;BME280;61829;53.286;10.434;2024-03-06T01:03:21;101860.81;;;0.68;83.58
73558;BME280;61829;53.286;10.434;2024-03-06T01:06:09;101860.97;;;0.65;83.26
73558;BME280;61829;53.286;10.434;2024-03-06T01:08:53;101874.41;;;0.62;83.48
73558;BME280;61829;53.286;10.434;2024-03-06T01:11:39;101864.00;;;0.59;83.05
73558;BME280;61829;53.286;10.434;2024-03-06T01:14:23;101868.38;;;0.60;83.32
73558;BME280;61829;53.286;10.434;2024-03-06T01:17:08;101866.66;;;0.59;83.21
73558;BME280;61829;53.286;10.434;2024-03-06T01:19:53;101877.44;;;0.56;83.42
73558;BME280;61829;53.286;10.434;2024-03-06T01:22:37;101867.88;;;0.53;83.67
73558;BME280;61829;53.286;10.434;2024-03-06T01:25:24;101874.22;;;0.51;83.52
73558;BME280;61829;53.286;10.434;2024-03-06T01:31:44;101871.09;;;0.44;84.03
73558;BME280;61829;53.286;10.434;2024-03-06T01:34:31;101874.78;;;0.41;83.66
73558;BME280;61829;53.286;10.434;2024-03-06T01:37:18;101880.09;;;0.41;83.62
73558;BME280;61829;53.286;10.434;2024-03-06T01:40:02;101868.00;;;0.37;83.59
73558;BME280;61829;53.286;10.434;2024-03-06T01:42:49;101872.53;;;0.35;83.84
73558;BME280;61829;53.286;10.434;2024-03-06T01:45:33;101876.22;;;0.33;83.34
73558;BME280;61829;53.286;10.434;2024-03-06T01:48:24;101881.78;;;0.28;83.48
73558;BME280;61829;53.286;10.434;2024-03-06T01:51:10;101882.84;;;0.26;83.82
73558;BME280;61829;53.286;10.434;2024-03-06T01:53:56;101886.41;;;0.25;84.25
73558;BME280;61829;53.286;10.434;2024-03-06T01:56:44;101891.72;;;0.25;84.53
73558;BME280;61829;53.286;10.434;2024-03-06T01:59:30;101894.56;;;0.21;83.86
73558;BME280;61829;53.286;10.434;2024-03-06T02:02:14;101893.72;;;0.21;84.37
73558;BME280;61829;53.286;10.434;2024-03-06T02:05:04;101894.66;;;0.20;84.14
73558;BME280;61829;53.286;10.434;2024-03-06T02:07:50;101893.88;;;0.18;84.29
73558;BME280;61829;53.286;10.434;2024-03-06T02:10:38;101899.38;;;0.15;84.49
73558;BME280;61829;53.286;10.434;2024-03-06T02:13:24;101901.44;;;0.10;83.81
73558;BME280;61829;53.286;10.434;2024-03-06T02:16:11;101903.25;;;0.09;83.66
73558;BME280;61829;53.286;10.434;2024-03-06T02:18:55;101904.28;;;0.07;84.33
73558;BME280;61829;53.286;10.434;2024-03-06T02:21:41;101901.63;;;0.07;83.79
73558;BME280;61829;53.286;10.434;2024-03-06T02:24:25;101907.00;;;0.05;84.12
73558;BME280;61829;53.286;10.434;2024-03-06T02:27:10;101902.72;;;0.03;84.40
73558;BME280;61829;53.286;10.434;2024-03-06T02:29:58;101908.97;;;0.02;83.83
73558;BME280;61829;53.286;10.434;2024-03-06T02:32:42;101912.06;;;-0.06;85.13
73558;BME280;61829;53.286;10.434;2024-03-06T02:35:27;101912.66;;;-0.01;84.21
73558;BME280;61829;53.286;10.434;2024-03-06T02:38:12;101903.03;;;-0.02;85.27
73558;BME280;61829;53.286;10.434;2024-03-06T02:40:56;101908.41;;;-0.04;84.67
73558;BME280;61829;53.286;10.434;2024-03-06T02:43:41;101903.94;;;-0.03;84.95
73558;BME280;61829;53.286;10.434;2024-03-06T02:46:29;101912.00;;;-0.05;85.14
73558;BME280;61829;53.286;10.434;2024-03-06T02:49:15;101908.56;;;-0.07;84.85
73558;BME280;61829;53.286;10.434;2024-03-06T02:55:48;101904.31;;;-0.09;84.66
73558;BME280;61829;53.286;10.434;2024-03-06T02:58:35;101912.34;;;-0.11;85.14
73558;BME280;61829;53.286;10.434;2024-03-06T03:01:22;101908.75;;;-0.10;85.67
73558;BME280;61829;53.286;10.434;2024-03-06T03:04:07;101907.06;;;-0.11;84.62
73558;BME280;61829;53.286;10.434;2024-03-06T03:06:52;101911.59;;;-0.13;84.11
73558;BME280;61829;53.286;10.434;2024-03-06T03:09:36;101909.97;;;-0.15;84.09
73558;BME280;61829;53.286;10.434;2024-03-06T03:12:22;101910.16;;;-0.18;85.02
73558;BME280;61829;53.286;10.434;2024-03-06T03:15:09;101909.19;;;-0.17;84.79
73558;BME280;61829;53.286;10.434;2024-03-06T03:17:54;101913.56;;;-0.16;85.54
73558;BME280;61829;53.286;10.434;2024-03-06T03:20:40;101918.88;;;-0.16;85.73
73558;BME280;61829;53.286;10.434;2024-03-06T03:27:24;101924.00;;;-0.13;86.47
73558;BME280;61829;53.286;10.434;2024-03-06T03:30:10;101925.88;;;-0.15;86.79
73558;BME280;61829;53.286;10.434;2024-03-06T03:32:55;101929.53;;;-0.18;86.50
73558;BME280;61829;53.286;10.434;2024-03-06T03:35:40;101926.28;;;-0.23;86.55
73558;BME280;61829;53.286;10.434;2024-03-06T03:38:25;101925.44;;;-0.24;85.84
73558;BME280;61829;53.286;10.434;2024-03-06T03:41:15;101922.91;;;-0.25;85.97
73558;BME280;61829;53.286;10.434;2024-03-06T03:44:16;101931.78;;;-0.26;85.91
73558;BME280;61829;53.286;10.434;2024-03-06T03:47:01;101933.56;;;-0.27;86.18
73558;BME280;61829;53.286;10.434;2024-03-06T03:49:47;101937.16;;;-0.28;86.21
73558;BME280;61829;53.286;10.434;2024-03-06T03:52:32;101947.00;;;-0.30;85.56
73558;BME280;61829;53.286;10.434;2024-03-06T03:55:16;101951.50;;;-0.32;85.97
73558;BME280;61829;53.286;10.434;2024-03-06T03:58:02;101946.31;;;-0.33;85.93
73558;BME280;61829;53.286;10.434;2024-03-06T04:00:47;101943.66;;;-0.33;86.64
73558;BME280;61829;53.286;10.434;2024-03-06T04:03:32;101948.13;;;-0.34;86.58
73558;BME280;61829;53.286;10.434;2024-03-06T04:06:18;101950.75;;;-0.34;86.22
73558;BME280;61829;53.286;10.434;2024-03-06T04:09:03;101954.25;;;-0.33;87.08
73558;BME280;61829;53.286;10.434;2024-03-06T04:11:50;101952.47;;;-0.33;87.19
73558;BME280;61829;53.286;10.434;2024-03-06T04:14:50;101944.59;;;-0.34;87.01
73558;BME280;61829;53.286;10.434;2024-03-06T04:17:45;101950.75;;;-0.34;87.17
73558;BME280;61829;53.286;10.434;2024-03-06T04:20:31;101951.50;;;-0.32;87.14
73558;BME280;61829;53.286;10.434;2024-03-06T04:23:28;101945.28;;;-0.31;87.97
73558;BME280;61829;53.286;10.434;2024-03-06T04:26:13;101959.22;;;-0.27;87.34
73558;BME280;61829;53.286;10.434;2024-03-06T04:28:57;101959.81;;;-0.22;87.83
73558;BME280;61829;53.286;10.434;2024-03-06T04:31:42;101957.81;;;-0.18;87.98
73558;BME280;61829;53.286;10.434;2024-03-06T04:34:26;101956.81;;;-0.16;87.92
73558;BME280;61829;53.286;10.434;2024-03-06T04:37:11;101953.13;;;-0.13;88.20
73558;BME280;61829;53.286;10.434;2024-03-06T04:39:57;101954.56;;;-0.08;88.46
73558;BME280;61829;53.286;10.434;2024-03-06T04:42:42;101960.19;;;0.02;88.89
73558;BME280;61829;53.286;10.434;2024-03-06T04:45:26;101958.53;;;0.15;90.32
73558;BME280;61829;53.286;10.434;2024-03-06T04:48:11;101962.66;;;0.35;91.45
73558;BME280;61829;53.286;10.434;2024-03-06T04:50:56;101962.44;;;0.54;91.77
73558;BME280;61829;53.286;10.434;2024-03-06T04:53:41;101972.84;;;0.57;91.79
73558;BME280;61829;53.286;10.434;2024-03-06T04:56:28;101978.56;;;0.80;92.40
73558;BME280;61829;53.286;10.434;2024-03-06T04:59:12;101974.00;;;0.96;92.63
73558;BME280;61829;53.286;10.434;2024-03-06T05:01:59;101974.13;;;1.09;92.37
73558;BME280;61829;53.286;10.434;2024-03-06T05:04:44;101987.56;;;1.20;92.18
73558;BME280;61829;53.286;10.434;2024-03-06T05:07:29;101988.03;;;1.27;92.19
73558;BME280;61829;53.286;10.434;2024-03-06T05:10:15;101992.50;;;1.26;92.23
73558;BME280;61829;53.286;10.434;2024-03-06T05:13:03;101991.72;;;1.24;91.90
73558;BME280;61829;53.286;10.434;2024-03-06T05:15:49;101998.47;;;1.16;91.44
73558;BME280;61829;53.286;10.434;2024-03-06T05:18:34;102001.63;;;1.08;90.69
73558;BME280;61829;53.286;10.434;2024-03-06T05:21:19;102006.53;;;1.00;90.68
73558;BME280;61829;53.286;10.434;2024-03-06T05:24:04;102004.34;;;0.92;90.45
73558;BME280;61829;53.286;10.434;2024-03-06T05:26:49;102007.44;;;0.84;90.77
73558;BME280;61829;53.286;10.434;2024-03-06T05:29:35;102019.28;;;0.79;90.22
73558;BME280;61829;53.286;10.434;2024-03-06T05:32:23;102020.50;;;0.73;90.44
73558;BME280;61829;53.286;10.434;2024-03-06T05:35:08;102021.72;;;0.67;89.89
73558;BME280;61829;53.286;10.434;2024-03-06T05:41:41;102030.16;;;0.60;89.89
73558;BME280;61829;53.286;10.434;2024-03-06T05:44:25;102035.66;;;0.57;89.92
73558;BME280;61829;53.286;10.434;2024-03-06T05:47:12;102038.56;;;0.52;89.82
73558;BME280;61829;53.286;10.434;2024-03-06T05:49:59;102042.44;;;0.47;90.12
73558;BME280;61829;53.286;10.434;2024-03-06T05:52:44;102046.97;;;0.44;89.66
73558;BME280;61829;53.286;10.434;2024-03-06T05:55:28;102036.53;;;0.41;89.85
73558;BME280;61829;53.286;10.434;2024-03-06T05:58:13;102053.47;;;0.39;90.04
73558;BME280;61829;53.286;10.434;2024-03-06T06:00:58;102049.91;;;0.40;90.39
73558;BME280;61829;53.286;10.434;2024-03-06T06:03:42;102051.66;;;0.39;89.59
73558;BME280;61829;53.286;10.434;2024-03-06T06:06:27;102057.06;;;0.38;90.22
73558;BME280;61829;53.286;10.434;2024-03-06T06:09:12;102064.06;;;0.39;90.04
73558;BME280;61829;53.286;10.434;2024-03-06T06:11:59;102064.84;;;0.41;90.03
73558;BME280;61829;53.286;10.434;2024-03-06T06:14:47;102075.34;;;0.42;89.84
73558;BME280;61829;53.286;10.434;2024-03-06T06:17:31;102074.44;;;0.43;90.62
73558;BME280;61829;53.286;10.434;2024-03-06T06:20:16;102079.56;;;0.47;90.11
73558;BME280;61829;53.286;10.434;2024-03-06T06:23:02;102076.78;;;0.48;89.80
73558;BME280;61829;53.286;10.434;2024-03-06T06:25:50;102087.16;;;0.53;90.60
73558;BME280;61829;53.286;10.434;2024-03-06T06:28:34;102095.69;;;0.58;89.92
73558;BME280;61829;53.286;10.434;2024-03-06T06:31:19;102091.84;;;0.63;90.13
73558;BME280;61829;53.286;10.434;2024-03-06T06:34:04;102088.94;;;0.68;90.87
73558;BME280;61829;53.286;10.434;2024-03-06T06:40:55;102102.91;;;0.86;90.67
73558;BME280;61829;53.286;10.434;2024-03-06T06:43:40;102114.94;;;0.92;91.07
73558;BME280;61829;53.286;10.434;2024-03-06T06:46:25;102112.78;;;0.98;90.61
73558;BME280;61829;53.286;10.434;2024-03-06T06:49:10;102115.00;;;1.06;90.82
73558;BME280;61829;53.286;10.434;2024-03-06T06:51:54;102121.53;;;1.15;90.91
73558;BME280;61829;53.286;10.434;2024-03-06T06:54:39;102124.47;;;1.24;91.05
73558;BME280;61829;53.286;10.434;2024-03-06T06:57:23;102124.03;;;1.32;91.33
73558;BME280;61829;53.286;10.434;2024-03-06T07:00:08;102133.16;;;1.42;91.11
73558;BME280;61829;53.286;10.434;2024-03-06T07:03:15;102140.19;;;1.57;91.51
73558;BME280;61829;53.286;10.434;2024-03-06T07:06:00;102132.78;;;1.77;91.74
73558;BME280;61829;53.286;10.434;2024-03-06T07:08:44;102133.16;;;1.99;92.09
73558;BME280;61829;53.286;10.434;2024-03-06T07:11:29;102143.94;;;2.25;92.12
73558;BME280;61829;53.286;10.434;2024-03-06T07:14:13;102146.41;;;2.55;91.91
73558;BME280;61829;53.286;10.434;2024-03-06T07:16:57;102141.91;;;2.83;91.96
73558;BME280;61829;53.286;10.434;2024-03-06T07:23:22;102145.78;;;3.57;91.77
73558;BME280;61829;53.286;10.434;2024-03-06T07:26:06;102154.38;;;3.86;91.39
73558;BME280;61829;53.286;10.434;2024-03-06T07:28:50;102155.50;;;4.08;91.02
73558;BME280;61829;53.286;10.434;2024-03-06T07:31:36;102158.41;;;4.41;90.63
73558;BME280;61829;53.286;10.434;2024-03-06T07:34:22;102163.69;;;4.78;90.63
73558;BME280;61829;53.286;10.434;2024-03-06T07:37:06;102173.69;;;5.11;89.25
73558;BME280;61829;53.286;10.434;2024-03-06T07:39:52;102166.09;;;5.40;88.01
73558;BME280;61829;53.286;10.434;2024-03-06T07:42:44;102174.63;;;5.57;86.07
73558;BME280;61829;53.286;10.434;2024-03-06T07:45:29;102180.28;;;5.88;85.64
73558;BME280;61829;53.286;10.434;2024-03-06T07:48:13;102178.59;;;6.20;83.76
73558;BME280;61829;53.286;10.434;2024-03-06T07:50:57;102185.41;;;6.36;81.27
73558;BME280;61829;53.286;10.434;2024-03-06T07:53:42;102181.44;;;6.62;80.18
73558;BME280;61829;53.286;10.434;2024-03-06T07:56:27;102186.31;;;6.68;79.29
73558;BME280;61829;53.286;10.434;2024-03-06T07:59:12;102190.03;;;6.88;77.98
73558;BME280;61829;53.286;10.434;2024-03-06T08:01:58;102190.56;;;7.03;77.22
73558;BME280;61829;53.286;10.434;2024-03-06T08:04:42;102192.69;;;7.20;76.73
73558;BME280;61829;53.286;10.434;2024-03-06T08:07:27;102192.38;;;7.35;75.36
73558;BME280;61829;53.286;10.434;2024-03-06T08:10:12;102192.84;;;7.40;75.84
73558;BME280;61829;53.286;10.434;2024-03-06T08:12:57;102199.19;;;7.39;74.59
73558;BME280;61829;53.286;10.434;2024-03-06T08:15:41;102190.47;;;7.47;74.80
73558;BME280;61829;53.286;10.434;2024-03-06T08:18:28;102198.13;;;7.51;74.58
73558;BME280;61829;53.286;10.434;2024-03-06T08:21:14;102213.22;;;7.52;74.17
73558;BME280;61829;53.286;10.434;2024-03-06T08:23:59;102210.00;;;7.58;73.04
73558;BME280;61829;53.286;10.434;2024-03-06T08:26:44;102209.44;;;7.55;73.18
73558;BME280;61829;53.286;10.434;2024-03-06T08:29:28;102214.28;;;7.82;72.77
73558;BME280;61829;53.286;10.434;2024-03-06T08:32:12;102218.50;;;8.05;72.11
73558;BME280;61829;53.286;10.434;2024-03-06T08:34:57;102218.41;;;8.26;71.35
73558;BME280;61829;53.286;10.434;2024-03-06T08:37:43;102225.16;;;8.42;69.67
73558;BME280;61829;53.286;10.434;2024-03-06T08:40:28;102228.94;;;8.70;70.23
73558;BME280;61829;53.286;10.434;2024-03-06T08:43:13;102228.09;;;8.79;68.14
73558;BME280;61829;53.286;10.434;2024-03-06T08:45:59;102218.91;;;8.72;68.88
73558;BME280;61829;53.286;10.434;2024-03-06T08:48:44;102236.56;;;8.74;68.34
73558;BME280;61829;53.286;10.434;2024-03-06T08:51:29;102238.84;;;8.79;67.85
73558;BME280;61829;53.286;10.434;2024-03-06T08:54:13;102234.03;;;8.73;67.39
73558;BME280;61829;53.286;10.434;2024-03-06T08:56:57;102231.34;;;8.73;66.85
73558;BME280;61829;53.286;10.434;2024-03-06T08:59:44;102243.22;;;8.70;67.69
73558;BME280;61829;53.286;10.434;2024-03-06T09:02:29;102239.41;;;8.73;66.53
73558;BME280;61829;53.286;10.434;2024-03-06T09:05:13;102237.00;;;8.80;66.92
73558;BME280;61829;53.286;10.434;2024-03-06T09:07:57;102240.28;;;9.03;66.86
73558;BME280;61829;53.286;10.434;2024-03-06T09:10:42;102253.44;;;9.06;66.77
73558;BME280;61829;53.286;10.434;2024-03-06T09:13:30;102253.31;;;8.97;65.80
73558;BME280;61829;53.286;10.434;2024-03-06T09:16:14;102256.25;;;8.94;65.69
73558;BME280;61829;53.286;10.434;2024-03-06T09:18:58;102264.47;;;9.03;65.88
73558;BME280;61829;53.286;10.434;2024-03-06T09:21:42;102260.94;;;8.92;65.18
73558;BME280;61829;53.286;10.434;2024-03-06T09:24:28;102267.91;;;9.14;65.07
73558;BME280;61829;53.286;10.434;2024-03-06T09:27:14;102260.00;;;9.32;64.88
73558;BME280;61829;53.286;10.434;2024-03-06T09:29:59;102273.59;;;9.40;64.74
73558;BME280;61829;53.286;10.434;2024-03-06T09:32:44;102266.63;;;9.48;63.97
73558;BME280;61829;53.286;10.434;2024-03-06T09:35:28;102279.94;;;9.39;64.21
73558;BME280;61829;53.286;10.434;2024-03-06T09:38:13;102285.03;;;9.33;64.25
73558;BME280;61829;53.286;10.434;2024-03-06T09:40:58;102284.34;;;9.40;63.84
73558;BME280;61829;53.286;10.434;2024-03-06T09:43:44;102287.31;;;9.37;64.26
73558;BME280;61829;53.286;10.434;2024-03-06T09:46:30;102287.16;;;9.19;63.44
73558;BME280;61829;53.286;10.434;2024-03-06T09:49:16;102278.41;;;9.17;63.80
73558;BME280;61829;53.286;10.434;2024-03-06T09:52:02;102281.34;;;9.34;64.12
73558;BME280;61829;53.286;10.434;2024-03-06T09:54:48;102285.03;;;9.33;62.89
73558;BME280;61829;53.286;10.434;2024-03-06T09:57:38;102289.03;;;9.29;62.33
73558;BME280;61829;53.286;10.434;2024-03-06T10:00:22;102281.06;;;9.37;63.52
73558;BME280;61829;53.286;10.434;2024-03-06T10:03:09;102276.97;;;9.42;61.57
73558;BME280;61829;53.286;10.434;2024-03-06T10:05:55;102278.53;;;9.45;62.08
73558;BME280;61829;53.286;10.434;2024-03-06T10:08:44;102283.22;;;9.53;61.56
73558;BME280;61829;53.286;10.434;2024-03-06T10:11:30;102290.84;;;9.67;61.70
73558;BME280;61829;53.286;10.434;2024-03-06T10:14:16;102285.72;;;9.83;61.08
73558;BME280;61829;53.286;10.434;2024-03-06T10:17:04;102297.59;;;10.00;59.62
73558;BME280;61829;53.286;10.434;2024-03-06T10:19:49;102289.50;;;10.10;59.66
73558;BME280;61829;53.286;10.434;2024-03-06T10:22:36;102288.34;;;10.22;58.30
73558;BME280;61829;53.286;10.434;2024-03-06T10:25:22;102302.38;;;10.26;57.92
73558;BME280;61829;53.286;10.434;2024-03-06T10:28:08;102293.03;;;10.10;56.71
73558;BME280;61829;53.286;10.434;2024-03-06T10:31:03;102295.84;;;10.19;56.17
73558;BME280;61829;53.286;10.434;2024-03-06T10:33:50;102297.41;;;10.21;56.66
73558;BME280;61829;53.286;10.434;2024-03-06T10:36:35;102305.56;;;10.49;56.90
73558;BME280;61829;53.286;10.434;2024-03-06T10:39:21;102302.91;;;10.76;55.26
73558;BME280;61829;53.286;10.434;2024-03-06T10:42:07;102303.38;;;10.90;55.13
73558;BME280;61829;53.286;10.434;2024-03-06T10:44:53;102312.38;;;10.81;53.96
73558;BME280;61829;53.286;10.434;2024-03-06T10:47:40;102302.41;;;10.91;53.77
73558;BME280;61829;53.286;10.434;2024-03-06T10:50:25;102307.94;;;10.89;52.65
73558;BME280;61829;53.286;10.434;2024-03-06T10:53:12;102308.09;;;10.88;52.32
73558;BME280;61829;53.286;10.434;2024-03-06T10:55:57;102300.13;;;10.86;52.98
73558;BME280;61829;53.286;10.434;2024-03-06T10:58:46;102299.19;;;10.77;52.10
73558;BME280;61829;53.286;10.434;2024-03-06T11:01:33;102297.22;;;10.79;53.27
73558;BME280;61829;53.286;10.434;2024-03-06T11:04:19;102301.50;;;11.18;53.64
73558;BME280;61829;53.286;10.434;2024-03-06T11:07:04;102308.63;;;11.37;53.76
73558;BME280;61829;53.286;10.434;2024-03-06T11:09:49;102305.06;;;11.54;52.66
73558;BME280;61829;53.286;10.434;2024-03-06T11:12:37;102295.63;;;11.76;51.95
73558;BME280;61829;53.286;10.434;2024-03-06T11:15:24;102305.53;;;11.67;51.05
73558;BME280;61829;53.286;10.434;2024-03-06T11:24:12;102310.81;;;10.78;51.36
73558;BME280;61829;53.286;10.434;2024-03-06T11:27:02;102307.06;;;10.61;52.38
73558;BME280;61829;53.286;10.434;2024-03-06T11:32:59;102313.97;;;10.46;53.58
73558;BME280;61829;53.286;10.434;2024-03-06T11:39:06;102317.00;;;10.61;53.44
73558;BME280;61829;53.286;10.434;2024-03-06T11:41:51;102309.03;;;10.69;53.06
73558;BME280;61829;53.286;10.434;2024-03-06T11:44:36;102312.63;;;10.87;52.68
73558;BME280;61829;53.286;10.434;2024-03-06T11:47:20;102310.28;;;11.02;52.34
73558;BME280;61829;53.286;10.434;2024-03-06T11:50:06;102314.00;;;11.37;52.63
73558;BME280;61829;53.286;10.434;2024-03-06T11:52:53;102316.72;;;11.37;51.58
73558;BME280;61829;53.286;10.434;2024-03-06T11:55:40;102319.88;;;11.50;50.91
73558;BME280;61829;53.286;10.434;2024-03-06T11:58:38;102317.00;;;11.52;50.38
73558;BME280;61829;53.286;10.434;2024-03-06T12:01:22;102317.88;;;11.52;51.23
73558;BME280;61829;53.286;10.434;2024-03-06T12:04:06;102317.19;;;11.50;51.78
73558;BME280;61829;53.286;10.434;2024-03-06T12:06:51;102328.13;;;11.49;51.07
73558;BME280;61829;53.286;10.434;2024-03-06T12:09:37;102323.03;;;11.10;51.02
73558;BME280;61829;53.286;10.434;2024-03-06T12:12:23;102323.72;;;10.84;51.87
73558;BME280;61829;53.286;10.434;2024-03-06T12:15:11;102329.03;;;10.66;52.33
73558;BME280;61829;53.286;10.434;2024-03-06T12:17:56;102324.44;;;10.49;53.74
73558;BME280;61829;53.286;10.434;2024-03-06T12:20:41;102325.44;;;10.48;54.19
73558;BME280;61829;53.286;10.434;2024-03-06T12:23:30;102326.47;;;10.27;53.21
73558;BME280;61829;53.286;10.434;2024-03-06T12:26:16;102329.47;;;10.15;53.50
73558;BME280;61829;53.286;10.434;2024-03-06T12:29:09;102324.09;;;10.15;54.05
73558;BME280;61829;53.286;10.434;2024-03-06T12:31:56;102324.78;;;10.36;54.94
73558;BME280;61829;53.286;10.434;2024-03-06T12:34:41;102332.59;;;10.29;53.34
73558;BME280;61829;53.286;10.434;2024-03-06T12:37:30;102330.91;;;10.28;54.31
73558;BME280;61829;53.286;10.434;2024-03-06T12:40:15;102319.66;;;10.33;54.41
73558;BME280;61829;53.286;10.434;2024-03-06T12:42:59;102331.50;;;10.50;53.13
73558;BME280;61829;53.286;10.434;2024-03-06T12:45:44;102327.38;;;10.55;52.96
73558;BME280;61829;53.286;10.434;2024-03-06T12:48:29;102325.09;;;10.61;54.02
73558;BME280;61829;53.286;10.434;2024-03-06T12:51:14;102329.03;;;10.66;53.83
73558;BME280;61829;53.286;10.434;2024-03-06T12:53:59;102321.50;;;10.70;53.20
73558;BME280;61829;53.286;10.434;2024-03-06T12:56:43;102321.47;;;10.79;52.95
73558;BME280;61829;53.286;10.434;2024-03-06T12:59:27;102321.69;;;10.96;54.13
73558;BME280;61829;53.286;10.434;2024-03-06T13:02:12;102321.97;;;10.93;51.37
73558;BME280;61829;53.286;10.434;2024-03-06T13:04:56;102318.19;;;11.04;52.66
73558;BME280;61829;53.286;10.434;2024-03-06T13:07:44;102326.25;;;11.13;51.74
73558;BME280;61829;53.286;10.434;2024-03-06T13:10:29;102320.09;;;11.21;50.74
73558;BME280;61829;53.286;10.434;2024-03-06T13:13:15;102316.63;;;11.11;51.00
73558;BME280;61829;53.286;10.434;2024-03-06T13:16:01;102312.47;;;11.16;52.04
73558;BME280;61829;53.286;10.434;2024-03-06T13:18:47;102311.63;;;11.16;51.33
73558;BME280;61829;53.286;10.434;2024-03-06T13:21:32;102317.31;;;11.13;50.91
73558;BME280;61829;53.286;10.434;2024-03-06T13:24:17;102320.06;;;11.03;52.87
73558;BME280;61829;53.286;10.434;2024-03-06T13:27:03;102318.16;;;11.13;52.64
73558;BME280;61829;53.286;10.434;2024-03-06T13:29:49;102323.88;;;11.10;50.93
73558;BME280;61829;53.286;10.434;2024-03-06T13:32:33;102321.78;;;11.04;52.61
73558;BME280;61829;53.286;10.434;2024-03-06T13:35:18;102322.53;;;10.96;51.56
73558;BME280;61829;53.286;10.434;2024-03-06T13:38:03;102322.34;;;10.98;51.86
73558;BME280;61829;53.286;10.434;2024-03-06T13:40:48;102316.16;;;10.60;51.79
73558;BME280;61829;53.286;10.434;2024-03-06T13:43:32;102316.66;;;10.46;51.47
73558;BME280;61829;53.286;10.434;2024-03-06T13:46:17;102318.97;;;10.31;51.94
73558;BME280;61829;53.286;10.434;2024-03-06T13:49:01;102326.16;;;10.40;53.15
73558;BME280;61829;53.286;10.434;2024-03-06T13:51:48;102320.06;;;10.48;53.13
73558;BME280;61829;53.286;10.434;2024-03-06T13:54:33;102320.31;;;10.54;52.36
73558;BME280;61829;53.286;10.434;2024-03-06T13:57:18;102314.38;;;10.51;51.72
73558;BME280;61829;53.286;10.434;2024-03-06T14:00:06;102316.91;;;10.52;52.51
73558;BME280;61829;53.286;10.434;2024-03-06T14:02:56;102321.91;;;10.47;52.40
73558;BME280;61829;53.286;10.434;2024-03-06T14:05:42;102315.34;;;10.50;50.93
73558;BME280;61829;53.286;10.434;2024-03-06T14:08:27;102317.13;;;10.31;51.09
73558;BME280;61829;53.286;10.434;2024-03-06T14:11:11;102312.88;;;10.29;52.15
73558;BME280;61829;53.286;10.434;2024-03-06T14:13:56;102317.84;;;10.33;51.54
73558;BME280;61829;53.286;10.434;2024-03-06T14:16:41;102320.78;;;10.40;52.46
73558;BME280;61829;53.286;10.434;2024-03-06T14:19:26;102321.44;;;10.62;52.40
73558;BME280;61829;53.286;10.434;2024-03-06T14:22:11;102326.53;;;10.65;50.79
73558;BME280;61829;53.286;10.434;2024-03-06T14:24:56;102327.72;;;10.43;51.12
73558;BME280;61829;53.286;10.434;2024-03-06T14:27:40;102323.78;;;10.18;51.66
73558;BME280;61829;53.286;10.434;2024-03-06T14:30:25;102333.03;;;9.96;52.54
73558;BME280;61829;53.286;10.434;2024-03-06T14:33:10;102327.38;;;9.99;53.61
73558;BME280;61829;53.286;10.434;2024-03-06T14:35:54;102329.09;;;10.00;52.26
73558;BME280;61829;53.286;10.434;2024-03-06T14:38:39;102327.06;;;10.02;53.36
73558;BME280;61829;53.286;10.434;2024-03-06T14:41:24;102331.03;;;10.07;52.66
73558;BME280;61829;53.286;10.434;2024-03-06T14:44:09;102335.69;;;10.15;52.64
73558;BME280;61829;53.286;10.434;2024-03-06T14:46:57;102323.41;;;10.03;52.63
73558;BME280;61829;53.286;10.434;2024-03-06T14:49:44;102333.03;;;9.96;52.10
73558;BME280;61829;53.286;10.434;2024-03-06T14:52:29;102340.69;;;10.00;52.17
73558;BME280;61829;53.286;10.434;2024-03-06T14:55:14;102340.00;;;9.88;52.06
73558;BME280;61829;53.286;10.434;2024-03-06T14:58:00;102339.72;;;9.82;51.80
73558;BME280;61829;53.286;10.434;2024-03-06T15:00:45;102350.06;;;9.77;51.83